sensor_id;sensor_type;location;lat;lon;timestamp;pressure;altitude;pressure_sealevel;temperature;humidity
71974;BME280;59840;52.122;5.404;2023-08-06T00:00:52;100585.00;;;14.79;100.00
71974;BME280;59840;52.122;5.404;2023-08-06T00:03:19;100589.53;;;14.78;100.00
71974;BME280;59840;52.122;5.404;2023-08-06T00:05:46;100584.22;;;14.78;100.00
71974;BME280;59840;52.122;5.404;2023-08-06T00:08:12;100587.66;;;14.79;100.00
71974;BME280;59840;52.122;5.404;2023-08-06T00:10:40;100589.25;;;14.80;100.00
71974;BME280;59840;52.122;5.404;2023-08-06T00:13:07;100588.47;;;14.79;100.00
71974;BME280;59840;52.122;5.404;2023-08-06T00:15:34;100587.16;;;14.77;100.00
71974;BME280;59840;52.122;5.404;2023-08-06T00:18:00;100587.16;;;14.77;100.00
71974;BME280;59840;52.122;5.404;2023-08-06T00:20:27;100586.34;;;14.76;100.00
71974;BME280;59840;52.122;5.404;2023-08-06T00:22:54;100585.56;;;14.75;100.00
71974;BME280;59840;52.122;5.404;2023-08-06T00:25:20;100590.63;;;14.72;100.00
71974;BME280;59840;52.122;5.404;2023-08-06T00:27:47;100582.94;;;14.70;100.00
71974;BME280;59840;52.122;5.404;2023-08-06T00:30:13;100591.19;;;14.69;100.00
71974;BME280;59840;52.122;5.404;2023-08-06T00:32:40;100584.28;;;14.68;100.00
71974;BME280;59840;52.122;5.404;2023-08-06T00:35:07;100586.66;;;14.69;100.00
71974;BME280;59840;52.122;5.404;2023-08-06T00:37:33;100585.09;;;14.68;100.00
71974;BME280;59840;52.122;5.404;2023-08-06T00:40:00;100574.75;;;14.67;100.00
71974;BME280;59840;52.122;5.404;2023-08-06T00:42:26;100577.91;;;14.69;100.00
71974;BME280;59840;52.122;5.404;2023-08-06T00:44:53;100580.03;;;14.67;100.00
71974;BME280;59840;52.122;5.404;2023-08-06T00:47:22;100571.28;;;14.66;100.00
71974;BME280;59840;52.122;5.404;2023-08-06T00:49:49;100585.63;;;14.65;100.00
71974;BME280;59840;52.122;5.404;2023-08-06T00:52:16;100577.38;;;14.67;100.00
71974;BME280;59840;52.122;5.404;2023-08-06T00:54:43;100578.72;;;14.64;100.00
71974;BME280;59840;52.122;5.404;2023-08-06T00:57:11;100569.69;;;14.65;100.00
71974;BME280;59840;52.122;5.404;2023-08-06T00:59:37;100579.25;;;14.66;100.00
71974;BME280;59840;52.122;5.404;2023-08-06T01:02:04;100578.72;;;14.64;100.00
71974;BME280;59840;52.122;5.404;2023-08-06T01:04:31;100573.94;;;14.66;100.00
71974;BME280;59840;52.122;5.404;2023-08-06T01:07:21;100582.69;;;14.67;100.00
71974;BME280;59840;52.122;5.404;2023-08-06T01:15:12;100571.81;;;14.68;100.00
71974;BME280;59840;52.122;5.404;2023-08-06T01:17:42;100570.50;;;14.66;100.00
71974;BME280;59840;52.122;5.404;2023-08-06T01:20:09;100563.84;;;14.68;100.00
71974;BME280;59840;52.122;5.404;2023-08-06T01:22:35;100568.06;;;14.69;100.00
71974;BME280;59840;52.122;5.404;2023-08-06T01:25:02;100570.72;;;14.69;100.00
71974;BME280;59840;52.122;5.404;2023-08-06T01:27:38;100565.66;;;14.73;100.00
71974;BME280;59840;52.122;5.404;2023-08-06T01:30:28;100574.69;;;14.72;100.00
71974;BME280;59840;52.122;5.404;2023-08-06T01:33:00;100577.63;;;14.70;100.00
71974;BME280;59840;52.122;5.404;2023-08-06T01:35:30;100570.72;;;14.69;100.00
71974;BME280;59840;52.122;5.404;2023-08-06T01:37:59;100576.84;;;14.70;100.00
71974;BME280;59840;52.122;5.404;2023-08-06T01:40:27;100577.34;;;14.72;100.00
71974;BME280;59840;52.122;5.404;2023-08-06T01:42:55;100572.84;;;14.72;100.00
71974;BME280;59840;52.122;5.404;2023-08-06T01:45:22;100573.66;;;14.68;100.00
71974;BME280;59840;52.122;5.404;2023-08-06T01:47:49;100572.06;;;14.67;100.00
71974;BME280;59840;52.122;5.404;2023-08-06T01:50:15;100569.69;;;14.65;100.00
71974;BME280;59840;52.122;5.404;2023-08-06T01:52:42;100576.34;;;14.63;100.00
71974;BME280;59840;52.122;5.404;2023-08-06T01:55:08;100579.28;;;14.61;100.00
71974;BME280;59840;52.122;5.404;2023-08-06T01:57:35;100575.56;;;14.62;100.00
71974;BME280;59840;52.122;5.404;2023-08-06T02:00:02;100569.47;;;14.62;100.00
71974;BME280;59840;52.122;5.404;2023-08-06T02:02:30;100580.34;;;14.60;100.00
71974;BME280;59840;52.122;5.404;2023-08-06T02:04:56;100575.31;;;14.59;100.00
71974;BME280;59840;52.122;5.404;2023-08-06T02:07:24;100579.84;;;14.58;100.00
71974;BME280;59840;52.122;5.404;2023-08-06T02:09:51;100580.06;;;14.62;100.00
71974;BME280;59840;52.122;5.404;2023-08-06T02:12:17;100577.19;;;14.58;100.00
71974;BME280;59840;52.122;5.404;2023-08-06T02:14:44;100577.75;;;14.55;100.00
71974;BME280;59840;52.122;5.404;2023-08-06T02:17:11;100581.47;;;14.54;100.00
71974;BME280;59840;52.122;5.404;2023-08-06T02:19:37;100579.91;;;14.53;100.00
71974;BME280;59840;52.122;5.404;2023-08-06T02:22:04;100573.00;;;14.52;100.00
71974;BME280;59840;52.122;5.404;2023-08-06T02:24:30;100579.63;;;14.55;100.00
71974;BME280;59840;52.122;5.404;2023-08-06T02:26:57;100574.88;;;14.52;100.00
71974;BME280;59840;52.122;5.404;2023-08-06T02:29:24;100576.19;;;14.54;100.00
71974;BME280;59840;52.122;5.404;2023-08-06T02:31:50;100578.84;;;14.54;100.00
71974;BME280;59840;52.122;5.404;2023-08-06T02:34:17;100573.53;;;14.54;100.00
71974;BME280;59840;52.122;5.404;2023-08-06T02:36:44;100577.75;;;14.55;100.00
71974;BME280;59840;52.122;5.404;2023-08-06T02:39:10;100577.19;;;14.58;100.00
71974;BME280;59840;52.122;5.404;2023-08-06T02:41:37;100577.47;;;14.57;100.00
71974;BME280;59840;52.122;5.404;2023-08-06T02:44:03;100569.78;;;14.55;100.00
71974;BME280;59840;52.122;5.404;2023-08-06T02:46:30;100575.38;;;14.54;100.00
71974;BME280;59840;52.122;5.404;2023-08-06T02:48:56;100570.28;;;14.57;100.00
71974;BME280;59840;52.122;5.404;2023-08-06T02:51:23;100569.00;;;14.55;100.00
71974;BME280;59840;52.122;5.404;2023-08-06T02:53:50;100560.97;;;14.60;100.00
71974;BME280;59840;52.122;5.404;2023-08-06T02:56:16;100568.16;;;14.59;100.00
71974;BME280;59840;52.122;5.404;2023-08-06T02:58:43;100562.28;;;14.62;100.00
71974;BME280;59840;52.122;5.404;2023-08-06T03:01:09;100557.78;;;14.63;100.00
71974;BME280;59840;52.122;5.404;2023-08-06T03:03:36;100556.97;;;14.62;100.00
71974;BME280;59840;52.122;5.404;2023-08-06T03:06:03;100555.91;;;14.63;100.00
71974;BME280;59840;52.122;5.404;2023-08-06T03:08:29;100552.19;;;14.64;100.00
71974;BME280;59840;52.122;5.404;2023-08-06T03:10:56;100552.97;;;14.65;100.00
71974;BME280;59840;52.122;5.404;2023-08-06T03:13:22;100554.81;;;14.69;100.00
71974;BME280;59840;52.122;5.404;2023-08-06T03:15:56;100548.41;;;14.70;100.00
71974;BME280;59840;52.122;5.404;2023-08-06T03:18:23;100552.66;;;14.71;100.00
71974;BME280;59840;52.122;5.404;2023-08-06T03:20:52;100559.31;;;14.69;100.00
71974;BME280;59840;52.122;5.404;2023-08-06T03:23:19;100556.94;;;14.67;100.00
71974;BME280;59840;52.122;5.404;2023-08-06T03:25:46;100550.84;;;14.67;100.00
71974;BME280;59840;52.122;5.404;2023-08-06T03:28:12;100552.41;;;14.68;100.00
71974;BME280;59840;52.122;5.404;2023-08-06T03:30:39;100557.72;;;14.68;100.00
71974;BME280;59840;52.122;5.404;2023-08-06T03:33:06;100552.41;;;14.68;100.00
71974;BME280;59840;52.122;5.404;2023-08-06T03:35:32;100556.16;;;14.67;100.00
71974;BME280;59840;52.122;5.404;2023-08-06T03:37:59;100555.88;;;14.68;100.00
71974;BME280;59840;52.122;5.404;2023-08-06T03:40:25;100556.94;;;14.67;100.00
71974;BME280;59840;52.122;5.404;2023-08-06T03:42:52;100556.41;;;14.65;100.00
71974;BME280;59840;52.122;5.404;2023-08-06T03:45:19;100561.47;;;14.67;100.00
71974;BME280;59840;52.122;5.404;2023-08-06T03:47:45;100558.00;;;14.66;100.00
71974;BME280;59840;52.122;5.404;2023-08-06T03:50:12;100560.66;;;14.66;100.00
71974;BME280;59840;52.122;5.404;2023-08-06T03:52:38;100560.94;;;14.65;100.00
71974;BME280;59840;52.122;5.404;2023-08-06T03:55:05;100563.31;;;14.66;100.00
71974;BME280;59840;52.122;5.404;2023-08-06T03:57:32;100564.91;;;14.67;100.00
71974;BME280;59840;52.122;5.404;2023-08-06T03:59:58;100562.25;;;14.67;100.00
71974;BME280;59840;52.122;5.404;2023-08-06T04:02:25;100560.66;;;14.66;100.00
71974;BME280;59840;52.122;5.404;2023-08-06T04:04:52;100558.00;;;14.66;100.00
71974;BME280;59840;52.122;5.404;2023-08-06T04:07:20;100560.16;;;14.64;100.00
71974;BME280;59840;52.122;5.404;2023-08-06T04:09:55;100558.81;;;14.67;100.00
71974;BME280;59840;52.122;5.404;2023-08-06T04:12:21;100553.75;;;14.65;100.00
71974;BME280;59840;52.122;5.404;2023-08-06T04:14:49;100553.75;;;14.65;100.00
71974;BME280;59840;52.122;5.404;2023-08-06T04:17:15;100557.72;;;14.68;100.00
71974;BME280;59840;52.122;5.404;2023-08-06T04:19:42;100562.00;;;14.64;100.00
71974;BME280;59840;52.122;5.404;2023-08-06T04:22:09;100562.31;;;14.57;100.00
71974;BME280;59840;52.122;5.404;2023-08-06T04:24:35;100562.09;;;14.54;100.00
71974;BME280;59840;52.122;5.404;2023-08-06T04:27:02;100571.13;;;14.53;100.00
71974;BME280;59840;52.122;5.404;2023-08-06T04:29:28;100565.84;;;14.53;100.00
71974;BME280;59840;52.122;5.404;2023-08-06T04:31:55;100569.28;;;14.53;100.00
71974;BME280;59840;52.122;5.404;2023-08-06T04:34:21;100568.75;;;14.51;100.00
71974;BME280;59840;52.122;5.404;2023-08-06T04:36:48;100566.91;;;14.52;100.00
71974;BME280;59840;52.122;5.404;2023-08-06T04:39:15;100578.25;;;14.57;100.00
71974;BME280;59840;52.122;5.404;2023-08-06T04:41:41;100579.84;;;14.58;100.00
71974;BME280;59840;52.122;5.404;2023-08-06T04:44:08;100584.13;;;14.54;100.00
71974;BME280;59840;52.122;5.404;2023-08-06T04:46:34;100579.38;;;14.51;100.00
71974;BME280;59840;52.122;5.404;2023-08-06T04:49:01;100581.50;;;14.49;100.00
71974;BME280;59840;52.122;5.404;2023-08-06T04:51:28;100588.69;;;14.49;100.00
71974;BME280;59840;52.122;5.404;2023-08-06T04:53:54;100583.09;;;14.50;100.00
71974;BME280;59840;52.122;5.404;2023-08-06T04:56:21;100588.13;;;14.52;100.00
71974;BME280;59840;52.122;5.404;2023-08-06T04:58:47;100592.09;;;14.54;100.00
71974;BME280;59840;52.122;5.404;2023-08-06T05:01:14;100588.38;;;14.55;100.00
71974;BME280;59840;52.122;5.404;2023-08-06T05:03:40;100587.81;;;14.58;100.00
71974;BME280;59840;52.122;5.404;2023-08-06T05:06:07;100585.16;;;14.58;100.00
71974;BME280;59840;52.122;5.404;2023-08-06T05:08:34;100591.81;;;14.56;100.00
71974;BME280;59840;52.122;5.404;2023-08-06T05:11:00;100590.72;;;14.57;100.00
71974;BME280;59840;52.122;5.404;2023-08-06T05:13:27;100591.81;;;14.56;100.00
71974;BME280;59840;52.122;5.404;2023-08-06T05:15:53;100600.28;;;14.58;100.00
71974;BME280;59840;52.122;5.404;2023-08-06T05:18:20;100602.41;;;14.56;100.00
71974;BME280;59840;52.122;5.404;2023-08-06T05:20:47;100605.59;;;14.58;100.00
71974;BME280;59840;52.122;5.404;2023-08-06T05:23:14;100608.78;;;14.60;100.00
71974;BME280;59840;52.122;5.404;2023-08-06T05:25:41;100616.47;;;14.61;100.00
71974;BME280;59840;52.122;5.404;2023-08-06T05:28:07;100621.78;;;14.61;100.00
71974;BME280;59840;52.122;5.404;2023-08-06T05:30:39;100623.13;;;14.59;100.00
71974;BME280;59840;52.122;5.404;2023-08-06T05:33:05;100625.50;;;14.60;100.00
71974;BME280;59840;52.122;5.404;2023-08-06T05:35:32;100620.19;;;14.60;100.00
71974;BME280;59840;52.122;5.404;2023-08-06T05:37:59;100620.19;;;14.60;100.00
71974;BME280;59840;52.122;5.404;2023-08-06T05:40:26;100625.50;;;14.60;100.00
71974;BME280;59840;52.122;5.404;2023-08-06T05:42:55;100633.97;;;14.62;100.00
71974;BME280;59840;52.122;5.404;2023-08-06T05:45:22;100635.84;;;14.62;100.00
71974;BME280;59840;52.122;5.404;2023-08-06T05:47:48;100638.50;;;14.62;100.00
71974;BME280;59840;52.122;5.404;2023-08-06T05:50:16;100636.38;;;14.64;100.00
71974;BME280;59840;52.122;5.404;2023-08-06T05:52:43;100637.16;;;14.64;100.00
71974;BME280;59840;52.122;5.404;2023-08-06T05:55:10;100642.47;;;14.64;100.00
71974;BME280;59840;52.122;5.404;2023-08-06T05:57:36;100648.56;;;14.65;100.00
71974;BME280;59840;52.122;5.404;2023-08-06T06:00:03;100645.13;;;14.64;100.00
71974;BME280;59840;52.122;5.404;2023-08-06T06:02:32;100653.88;;;14.65;100.00
71974;BME280;59840;52.122;5.404;2023-08-06T06:04:59;100653.88;;;14.65;100.00
71974;BME280;59840;52.122;5.404;2023-08-06T06:07:25;100652.03;;;14.65;100.00
71974;BME280;59840;52.122;5.404;2023-08-06T06:09:52;100665.03;;;14.67;100.00
71974;BME280;59840;52.122;5.404;2023-08-06T06:12:18;100657.84;;;14.67;100.00
71974;BME280;59840;52.122;5.404;2023-08-06T06:14:45;100661.56;;;14.66;100.00
71974;BME280;59840;52.122;5.404;2023-08-06T06:17:12;100656.78;;;14.68;100.00
71974;BME280;59840;52.122;5.404;2023-08-06T06:19:38;100667.13;;;14.70;100.00
71974;BME280;59840;52.122;5.404;2023-08-06T06:22:05;100668.44;;;14.72;100.00
71974;BME280;59840;52.122;5.404;2023-08-06T06:24:32;100664.44;;;14.75;100.00
71974;BME280;59840;52.122;5.404;2023-08-06T06:26:59;100671.34;;;14.76;100.00
71974;BME280;59840;52.122;5.404;2023-08-06T06:29:25;100674.81;;;14.77;100.00
71974;BME280;59840;52.122;5.404;2023-08-06T06:31:52;100678.78;;;14.79;100.00
71974;BME280;59840;52.122;5.404;2023-08-06T06:34:19;100679.56;;;14.80;100.00
71974;BME280;59840;52.122;5.404;2023-08-06T06:36:45;100684.09;;;14.79;100.00
71974;BME280;59840;52.122;5.404;2023-08-06T06:39:12;100690.72;;;14.82;100.00
71974;BME280;59840;52.122;5.404;2023-08-06T06:41:38;100696.03;;;14.82;100.00
71974;BME280;59840;52.122;5.404;2023-08-06T06:44:05;100692.28;;;14.83;100.00
71974;BME280;59840;52.122;5.404;2023-08-06T06:46:32;100689.09;;;14.86;100.00
71974;BME280;59840;52.122;5.404;2023-08-06T06:48:58;100679.00;;;14.83;100.00
71974;BME280;59840;52.122;5.404;2023-08-06T06:51:25;100694.44;;;14.81;100.00
71974;BME280;59840;52.122;5.404;2023-08-06T06:53:52;100695.22;;;14.81;100.00
71974;BME280;59840;52.122;5.404;2023-08-06T06:56:18;100700.03;;;14.79;100.00
71974;BME280;59840;52.122;5.404;2023-08-06T06:58:45;100696.28;;;14.80;100.00
71974;BME280;59840;52.122;5.404;2023-08-06T07:01:11;100693.91;;;14.79;100.00
71974;BME280;59840;52.122;5.404;2023-08-06T07:03:38;100696.59;;;14.73;100.00
71974;BME280;59840;52.122;5.404;2023-08-06T07:06:06;100695.28;;;14.71;100.00
71974;BME280;59840;52.122;5.404;2023-08-06T07:08:33;100695.81;;;14.68;100.00
71974;BME280;59840;52.122;5.404;2023-08-06T07:11:01;100698.47;;;14.68;100.00
71974;BME280;59840;52.122;5.404;2023-08-06T07:13:29;100697.69;;;14.67;100.00
71974;BME280;59840;52.122;5.404;2023-08-06T07:15:56;100695.56;;;14.69;100.00
71974;BME280;59840;52.122;5.404;2023-08-06T07:18:23;100699.53;;;14.72;100.00
71974;BME280;59840;52.122;5.404;2023-08-06T07:20:50;100702.72;;;14.69;100.00
71974;BME280;59840;52.122;5.404;2023-08-06T07:23:19;100697.13;;;14.70;100.00
71974;BME280;59840;52.122;5.404;2023-08-06T07:25:46;100709.06;;;14.73;100.00
71974;BME280;59840;52.122;5.404;2023-08-06T07:28:14;100704.00;;;14.77;100.00
71974;BME280;59840;52.122;5.404;2023-08-06T07:30:41;100707.19;;;14.79;100.00
71974;BME280;59840;52.122;5.404;2023-08-06T07:33:08;100711.97;;;14.82;100.00
71974;BME280;59840;52.122;5.404;2023-08-06T07:35:35;100713.81;;;14.81;100.00
71974;BME280;59840;52.122;5.404;2023-08-06T07:38:02;100719.66;;;14.83;100.00
71974;BME280;59840;52.122;5.404;2023-08-06T07:40:29;100714.06;;;14.85;100.00
71974;BME280;59840;52.122;5.404;2023-08-06T07:42:55;100719.91;;;14.87;100.00
71974;BME280;59840;52.122;5.404;2023-08-06T07:45:22;100720.38;;;14.94;100.00
71974;BME280;59840;52.122;5.404;2023-08-06T07:47:49;100723.03;;;14.94;100.00
71974;BME280;59840;52.122;5.404;2023-08-06T07:50:15;100719.81;;;14.97;100.00
71974;BME280;59840;52.122;5.404;2023-08-06T07:52:42;100720.59;;;14.97;100.00
71974;BME280;59840;52.122;5.404;2023-08-06T07:55:09;100724.84;;;14.98;100.00
71974;BME280;59840;52.122;5.404;2023-08-06T07:57:35;100718.78;;;14.93;100.00
71974;BME280;59840;52.122;5.404;2023-08-06T08:00:02;100721.25;;;14.84;100.00
71974;BME280;59840;52.122;5.404;2023-08-06T08:02:30;100722.88;;;14.75;100.00
71974;BME280;59840;52.122;5.404;2023-08-06T08:04:56;100727.16;;;14.66;100.00
71974;BME280;59840;52.122;5.404;2023-08-06T08:07:23;100728.00;;;14.61;100.00
71974;BME280;59840;52.122;5.404;2023-08-06T08:09:49;100730.44;;;14.53;100.00
71974;BME280;59840;52.122;5.404;2023-08-06T08:12:16;100722.25;;;14.44;100.00
71974;BME280;59840;52.122;5.404;2023-08-06T08:14:42;100731.28;;;14.43;100.00
71974;BME280;59840;52.122;5.404;2023-08-06T08:17:11;100736.31;;;14.39;100.00
71974;BME280;59840;52.122;5.404;2023-08-06T08:19:40;100728.63;;;14.33;100.00
71974;BME280;59840;52.122;5.404;2023-08-06T08:22:07;100741.63;;;14.29;100.00
71974;BME280;59840;52.122;5.404;2023-08-06T08:24:34;100735.53;;;14.29;100.00
71974;BME280;59840;52.122;5.404;2023-08-06T08:27:01;100735.25;;;14.30;100.00
71974;BME280;59840;52.122;5.404;2023-08-06T08:29:27;100735.00;;;14.27;100.00
71974;BME280;59840;52.122;5.404;2023-08-06T08:31:54;100736.06;;;14.26;100.00
71974;BME280;59840;52.122;5.404;2023-08-06T08:34:21;100741.91;;;14.23;100.00
71974;BME280;59840;52.122;5.404;2023-08-06T08:36:47;100742.44;;;14.25;100.00
71974;BME280;59840;52.122;5.404;2023-08-06T08:39:14;100742.44;;;14.25;100.00
71974;BME280;59840;52.122;5.404;2023-08-06T08:41:41;100745.38;;;14.23;100.00
71974;BME280;59840;52.122;5.404;2023-08-06T08:44:09;100749.09;;;14.22;100.00
71974;BME280;59840;52.122;5.404;2023-08-06T08:46:40;100736.09;;;14.21;100.00
71974;BME280;59840;52.122;5.404;2023-08-06T08:49:08;100749.88;;;14.23;100.00
71974;BME280;59840;52.122;5.404;2023-08-06T08:51:35;100760.22;;;14.24;100.00
71974;BME280;59840;52.122;5.404;2023-08-06T08:54:03;100748.81;;;14.24;100.00
71974;BME280;59840;52.122;5.404;2023-08-06T08:56:31;100759.16;;;14.25;100.00
71974;BME280;59840;52.122;5.404;2023-08-06T08:58:58;100752.25;;;14.24;100.00
71974;BME280;59840;52.122;5.404;2023-08-06T09:01:26;100756.78;;;14.29;100.00
71974;BME280;59840;52.122;5.404;2023-08-06T09:03:55;100758.34;;;14.30;100.00
71974;BME280;59840;52.122;5.404;2023-08-06T09:06:25;100763.13;;;14.33;100.00
71974;BME280;59840;52.122;5.404;2023-08-06T09:09:05;100775.88;;;14.41;100.00
71974;BME280;59840;52.122;5.404;2023-08-06T09:11:37;100777.44;;;14.37;100.00
71974;BME280;59840;52.122;5.404;2023-08-06T09:14:07;100781.97;;;14.31;100.00
71974;BME280;59840;52.122;5.404;2023-08-06T09:16:35;100773.75;;;14.28;100.00
71974;BME280;59840;52.122;5.404;2023-08-06T09:19:11;100783.84;;;14.26;100.00
71974;BME280;59840;52.122;5.404;2023-08-06T09:21:45;100784.91;;;14.30;100.00
71974;BME280;59840;52.122;5.404;2023-08-06T09:24:15;100785.69;;;14.25;100.00
71974;BME280;59840;52.122;5.404;2023-08-06T09:26:44;100801.63;;;14.25;100.00
71974;BME280;59840;52.122;5.404;2023-08-06T09:29:11;100801.38;;;14.22;100.00
71974;BME280;59840;52.122;5.404;2023-08-06T09:31:42;100802.97;;;14.23;100.00
71974;BME280;59840;52.122;5.404;2023-08-06T09:36:47;100801.13;;;14.18;100.00
71974;BME280;59840;52.122;5.404;2023-08-06T09:39:15;100806.44;;;14.18;100.00
71974;BME280;59840;52.122;5.404;2023-08-06T09:41:42;100811.47;;;14.20;100.00
71974;BME280;59840;52.122;5.404;2023-08-06T09:44:19;100813.03;;;14.21;100.00
71974;BME280;59840;52.122;5.404;2023-08-06T09:46:50;100812.28;;;14.20;100.00
71974;BME280;59840;52.122;5.404;2023-08-06T09:49:21;100810.38;;;14.21;100.00
71974;BME280;59840;52.122;5.404;2023-08-06T09:51:51;100823.41;;;14.22;100.00
71974;BME280;59840;52.122;5.404;2023-08-06T09:54:19;100820.50;;;14.19;100.00
71974;BME280;59840;52.122;5.404;2023-08-06T09:56:54;100822.09;;;14.20;100.00
71974;BME280;59840;52.122;5.404;2023-08-06T09:59:23;100833.75;;;14.24;100.00
71974;BME280;59840;52.122;5.404;2023-08-06T10:01:50;100822.84;;;14.30;100.00
71974;BME280;59840;52.122;5.404;2023-08-06T10:04:18;100827.34;;;14.35;100.00
71974;BME280;59840;52.122;5.404;2023-08-06T10:06:50;100833.19;;;14.37;100.00
71974;BME280;59840;52.122;5.404;2023-08-06T10:09:17;100839.31;;;14.37;100.00
71974;BME280;59840;52.122;5.404;2023-08-06T10:11:50;100837.97;;;14.35;100.00
71974;BME280;59840;52.122;5.404;2023-08-06T10:14:31;100847.53;;;14.36;100.00
71974;BME280;59840;52.122;5.404;2023-08-06T10:16:59;100853.09;;;14.39;100.00
71974;BME280;59840;52.122;5.404;2023-08-06T10:19:27;100862.41;;;14.37;100.00
71974;BME280;59840;52.122;5.404;2023-08-06T10:22:13;100851.78;;;14.32;100.00
71974;BME280;59840;52.122;5.404;2023-08-06T10:24:53;100856.28;;;14.31;100.00
71974;BME280;59840;52.122;5.404;2023-08-06T10:32:59;100854.97;;;14.44;100.00
71974;BME280;59840;52.122;5.404;2023-08-06T10:38:09;100856.00;;;14.58;100.00
71974;BME280;59840;52.122;5.404;2023-08-06T10:40:41;100853.06;;;14.60;100.00
71974;BME280;59840;52.122;5.404;2023-08-06T10:43:25;100854.38;;;14.62;100.00
71974;BME280;59840;52.122;5.404;2023-08-06T10:45:51;100852.78;;;14.66;100.00
71974;BME280;59840;52.122;5.404;2023-08-06T10:51:09;100862.34;;;14.72;100.00
71974;BME280;59840;52.122;5.404;2023-08-06T10:53:36;100861.81;;;14.70;100.00
71974;BME280;59840;52.122;5.404;2023-08-06T10:56:12;100860.75;;;14.66;100.00
71974;BME280;59840;52.122;5.404;2023-08-06T10:58:39;100859.69;;;14.67;100.00
71974;BME280;59840;52.122;5.404;2023-08-06T11:01:06;100864.44;;;14.75;100.00
71974;BME280;59840;52.122;5.404;2023-08-06T11:03:33;100874.03;;;14.71;100.00
71974;BME280;59840;52.122;5.404;2023-08-06T11:06:00;100879.34;;;14.71;100.00
71974;BME280;59840;52.122;5.404;2023-08-06T11:08:28;100869.25;;;14.68;100.00
71974;BME280;59840;52.122;5.404;2023-08-06T11:10:55;100875.34;;;14.74;100.00
71974;BME280;59840;52.122;5.404;2023-08-06T11:13:29;100874.56;;;14.63;100.00
71974;BME280;59840;52.122;5.404;2023-08-06T11:15:56;100881.47;;;14.64;100.00
71974;BME280;59840;52.122;5.404;2023-08-06T11:18:24;100882.28;;;14.65;100.00
71974;BME280;59840;52.122;5.404;2023-08-06T11:20:51;100893.69;;;14.65;100.00
71974;BME280;59840;52.122;5.404;2023-08-06T11:23:18;100888.91;;;14.67;100.00
71974;BME280;59840;52.122;5.404;2023-08-06T11:25:45;100892.63;;;14.61;100.00
71974;BME280;59840;52.122;5.404;2023-08-06T11:28:12;100893.47;;;14.52;100.00
71974;BME280;59840;52.122;5.404;2023-08-06T11:30:40;100897.72;;;14.48;100.00
71974;BME280;59840;52.122;5.404;2023-08-06T11:33:10;100904.38;;;14.45;100.00
71974;BME280;59840;52.122;5.404;2023-08-06T11:35:37;100907.81;;;14.51;100.00
71974;BME280;59840;52.122;5.404;2023-08-06T11:38:04;100896.41;;;14.45;100.00
71974;BME280;59840;52.122;5.404;2023-08-06T11:40:32;100908.63;;;14.41;100.00
71974;BME280;59840;52.122;5.404;2023-08-06T11:42:58;100906.19;;;14.34;100.00
71974;BME280;59840;52.122;5.404;2023-08-06T11:45:25;100913.63;;;14.22;100.00
71974;BME280;59840;52.122;5.404;2023-08-06T11:47:53;100901.97;;;14.13;100.00
71974;BME280;59840;52.122;5.404;2023-08-06T11:50:27;100915.50;;;14.01;100.00
71974;BME280;59840;52.122;5.404;2023-08-06T11:52:58;100904.34;;;13.94;100.00
71974;BME280;59840;52.122;5.404;2023-08-06T11:55:27;100901.16;;;13.92;100.00
71974;BME280;59840;52.122;5.404;2023-08-06T11:57:56;100905.94;;;13.90;100.00
71974;BME280;59840;52.122;5.404;2023-08-06T12:00:24;100900.88;;;13.89;100.00
71974;BME280;59840;52.122;5.404;2023-08-06T12:02:51;100902.47;;;13.90;100.00
71974;BME280;59840;52.122;5.404;2023-08-06T12:05:20;100910.19;;;13.91;100.00
71974;BME280;59840;52.122;5.404;2023-08-06T12:07:52;100905.13;;;13.95;100.00
71974;BME280;59840;52.122;5.404;2023-08-06T12:10:19;100906.22;;;13.99;100.00
71974;BME280;59840;52.122;5.404;2023-08-06T12:12:51;100913.13;;;14.05;100.00
71974;BME280;59840;52.122;5.404;2023-08-06T12:15:17;100909.66;;;14.09;100.00
71974;BME280;59840;52.122;5.404;2023-08-06T12:17:44;100911.78;;;14.13;100.00
71974;BME280;59840;52.122;5.404;2023-08-06T12:20:11;100916.56;;;14.16;100.00
71974;BME280;59840;52.122;5.404;2023-08-06T12:22:38;100917.63;;;14.20;100.00
71974;BME280;59840;52.122;5.404;2023-08-06T12:25:08;100921.34;;;14.19;100.00
71974;BME280;59840;52.122;5.404;2023-08-06T12:27:35;100927.72;;;14.18;100.00
71974;BME280;59840;52.122;5.404;2023-08-06T12:30:03;100928.78;;;14.17;100.00
71974;BME280;59840;52.122;5.404;2023-08-06T12:32:30;100934.34;;;14.20;100.00
71974;BME280;59840;52.122;5.404;2023-08-06T12:34:57;100939.38;;;14.22;100.00
71974;BME280;59840;52.122;5.404;2023-08-06T12:37:25;100944.41;;;14.23;100.00
71974;BME280;59840;52.122;5.404;2023-08-06T12:39:52;100937.78;;;14.26;100.00
71974;BME280;59840;52.122;5.404;2023-08-06T12:42:19;100945.75;;;14.31;100.00
71974;BME280;59840;52.122;5.404;2023-08-06T12:44:45;100945.75;;;14.31;100.00
71974;BME280;59840;52.122;5.404;2023-08-06T12:47:12;100948.41;;;14.36;100.00
71974;BME280;59840;52.122;5.404;2023-08-06T12:49:39;100951.09;;;14.41;100.00
71974;BME280;59840;52.122;5.404;2023-08-06T12:52:05;100954.78;;;14.40;100.00
71974;BME280;59840;52.122;5.404;2023-08-06T12:54:34;100959.06;;;14.41;100.00
71974;BME280;59840;52.122;5.404;2023-08-06T12:57:04;100966.50;;;14.44;100.00
71974;BME280;59840;52.122;5.404;2023-08-06T12:59:31;100967.81;;;14.47;100.00
71974;BME280;59840;52.122;5.404;2023-08-06T13:02:00;100959.59;;;14.48;100.00